| time (UTC) | temp F | wind direction | speed MPH | gust MPH | rain 1hr in | rain 24hr in | rain mn in | humidity % | barometer mb |
| 20260507112804 | 46 | 244 | 3.0 | 6.0 | 0.00 | 0.03 | 0.03 | 46 | 1015.6 |
| 20260507112306 | 44 | 220 | 4.0 | 9.0 | 0.00 | 0.03 | 0.03 | 51 | 1015.7 |
| 20260507111804 | 43 | 249 | 3.0 | 9.0 | 0.00 | 0.03 | 0.03 | 48 | 1015.8 |
| 20260507111304 | 45 | 201 | 2.0 | 3.0 | 0.00 | 0.03 | 0.03 | 51 | 1015.8 |
| 20260507110803 | 45 | 196 | 2.0 | 5.0 | 0.00 | 0.03 | 0.03 | 50 | 1015.7 |
| 20260507110303 | 44 | 41 | 1.0 | 6.0 | 0.00 | 0.03 | 0.03 | 55 | 1015.7 |
| 20260507105804 | 44 | 240 | 2.0 | 5.0 | 0.00 | 0.03 | 0.03 | 56 | 1015.7 |
| 20260507104804 | 46 | 141 | 2.0 | 3.0 | 0.00 | 0.03 | 0.03 | 52 | 1015.5 |
| 20260507104304 | 47 | 273 | 2.0 | 7.0 | 0.00 | 0.03 | 0.03 | 55 | 1015.5 |
| 20260507103804 | 45 | 282 | 3.0 | 7.0 | 0.00 | 0.03 | 0.03 | 55 | 1015.5 |
| 20260507103303 | 43 | 273 | 5.0 | 9.0 | 0.00 | 0.03 | 0.03 | 60 | 1015.5 |
| 20260507102804 | 42 | 252 | 5.0 | 12.0 | 0.00 | 0.03 | 0.03 | 57 | 1015.4 |
| 20260507101804 | 44 | 27 | 2.0 | 8.0 | 0.00 | 0.03 | 0.03 | 60 | 1015.4 |
| 20260507101303 | 43 | 276 | 1.0 | 6.0 | 0.00 | 0.03 | 0.03 | 59 | 1015.4 |
| 20260507100303 | 43 | 224 | 1.0 | 7.0 | 0.00 | 0.03 | 0.03 | 56 | 1015.2 |
| 20260507095803 | 42 | 274 | 1.0 | 3.0 | 0.00 | 0.03 | 0.03 | 63 | 1015.2 |
| 20260507095306 | 44 | 227 | 4.0 | 9.0 | 0.00 | 0.03 | 0.03 | 56 | 1015.3 |
| 20260507094804 | 44 | 287 | 2.0 | 5.0 | 0.00 | 0.03 | 0.03 | 62 | 1015.4 |
| 20260507093804 | 42 | 187 | 1.0 | 2.0 | 0.00 | 0.03 | 0.03 | 62 | 1015.3 |
| 20260507092803 | 44 | 252 | 1.0 | 3.0 | 0.00 | 0.03 | 0.03 | 66 | 1015.3 |
| 20260507092306 | 40 | 272 | 2.0 | 8.0 | 0.00 | 0.03 | 0.03 | 70 | 1015.3 |
| 20260507091803 | 40 | 274 | 5.0 | 12.0 | 0.00 | 0.03 | 0.03 | 67 | 1015.3 |
| 20260507091303 | 40 | 184 | 2.0 | 5.0 | 0.00 | 0.03 | 0.03 | 65 | 1015.2 |
| 20260507090803 | 39 | 221 | 5.0 | 10.0 | 0.00 | 0.03 | 0.03 | 64 | 1015.2 |
| 20260507085804 | 40 | 231 | 2.0 | 5.0 | 0.00 | 0.03 | 0.03 | 68 | 1015.2 |
| 20260507085306 | 40 | 181 | 2.0 | 9.0 | 0.00 | 0.03 | 0.03 | 66 | 1015.1 |
| 20260507084804 | 41 | 62 | 2.0 | 5.0 | 0.00 | 0.03 | 0.03 | 67 | 1015.1 |
| 20260507084304 | 41 | 39 | 2.0 | 5.0 | 0.00 | 0.03 | 0.03 | 68 | 1015.1 |
| 20260507083303 | 39 | 192 | 2.0 | 6.0 | 0.00 | 0.03 | 0.03 | 71 | 1015.2 |
| 20260507082804 | 39 | 238 | 2.0 | 7.0 | 0.00 | 0.03 | 0.03 | 69 | 1015.1 |
| 20260507082306 | 39 | 206 | 3.0 | 5.0 | 0.00 | 0.03 | 0.03 | 70 | 1015.0 |
| 20260507081803 | 38 | 215 | 2.0 | 7.0 | 0.00 | 0.03 | 0.03 | 70 | 1015.0 |
| 20260507081304 | 38 | 250 | 3.0 | 5.0 | 0.00 | 0.03 | 0.03 | 70 | 1014.9 |
| 20260507080804 | 38 | 222 | 3.0 | 8.0 | 0.00 | 0.03 | 0.03 | 71 | 1015.0 |
| 20260507080304 | 39 | 264 | 2.0 | 3.0 | 0.00 | 0.03 | 0.03 | 70 | 1015.0 |
| 20260507075803 | 39 | 256 | 4.0 | 7.0 | 0.00 | 0.03 | 0.03 | 70 | 1014.9 |
| 20260507075306 | 40 | 253 | 1.0 | 3.0 | 0.00 | 0.03 | 0.03 | 74 | 1014.7 |
| 20260507074803 | 40 | 45 | 1.0 | 3.0 | 0.00 | 0.04 | 0.03 | 75 | 1014.7 |
| 20260507074304 | 40 | 52 | 2.0 | 5.0 | 0.00 | 0.04 | 0.03 | 75 | 1014.7 |
| 20260507073804 | 38 | 163 | 1.0 | 1.0 | 0.00 | 0.04 | 0.03 | 76 | 1014.7 |
| 20260507073304 | 38 | 91 | 1.0 | 3.0 | 0.00 | 0.04 | 0.03 | 77 | 1014.8 |
| 20260507072804 | 38 | 93 | 1.0 | 3.0 | 0.00 | 0.04 | 0.03 | 80 | 1014.8 |
| 20260507072306 | 39 | 130 | 1.0 | 5.0 | 0.01 | 0.04 | 0.03 | 77 | 1014.8 |
| 20260507071804 | 39 | 43 | 2.0 | 5.0 | 0.01 | 0.04 | 0.03 | 75 | 1014.8 |
| 20260507071304 | 39 | 25 | 1.0 | 5.0 | 0.01 | 0.04 | 0.03 | 79 | 1014.8 |
| 20260507065306 | 37 | 350 | 0.0 | 1.0 | 0.01 | 0.04 | 0.03 | 77 | 1014.7 |
| 20260507064804 | 37 | 18 | 0.0 | 3.0 | 0.01 | 0.04 | 0.03 | 80 | 1014.7 |
| 20260507064304 | 37 | 39 | 1.0 | 2.0 | 0.01 | 0.04 | 0.03 | 77 | 1014.7 |
| 20260507063803 | 36 | 40 | 0.0 | 2.0 | 0.01 | 0.04 | 0.03 | 81 | 1014.6 |
| 20260507063303 | 37 | 40 | 1.0 | 2.0 | 0.01 | 0.04 | 0.03 | 82 | 1014.5 |
| 20260507062306 | 35 | 2 | 0.0 | 1.0 | 0.01 | 0.04 | 0.02 | 87 | 1014.5 |
| 20260507061804 | 34 | 341 | 0.0 | 1.0 | 0.01 | 0.04 | 0.02 | 87 | 1014.6 |
| 20260507061303 | 34 | 341 | 0.0 | 1.0 | 0.02 | 0.04 | 0.02 | 87 | 1014.4 |
| 20260507060803 | 34 | 341 | 1.0 | 2.0 | 0.02 | 0.04 | 0.02 | 84 | 1014.4 |
| 20260507060304 | 34 | 252 | 0.0 | 1.0 | 0.02 | 0.04 | 0.02 | 79 | 1014.4 |
| 20260507055803 | 34 | 252 | 0.0 | 0.0 | 0.02 | 0.04 | 0.02 | 79 | 1014.3 |
| 20260507055306 | 34 | 252 | 0.0 | 0.0 | 0.02 | 0.04 | 0.02 | 80 | 1014.2 |
| 20260507054804 | 34 | 252 | 0.0 | 1.0 | 0.02 | 0.04 | 0.02 | 83 | 1014.3 |
| 20260507054304 | 34 | 252 | 0.0 | 1.0 | 0.02 | 0.04 | 0.02 | 84 | 1014.3 |
| 20260507053803 | 34 | 252 | 0.0 | 1.0 | 0.02 | 0.04 | 0.02 | 83 | 1014.2 |
| 20260507053303 | 34 | 252 | 0.0 | 1.0 | 0.02 | 0.04 | 0.02 | 85 | 1014.3 |
| 20260507052803 | 33 | 252 | 0.0 | 1.0 | 0.01 | 0.03 | 0.01 | 84 | 1014.2 |
| 20260507052306 | 33 | 253 | 0.0 | 1.0 | 0.01 | 0.03 | 0.01 | 85 | 1014.2 |
| 20260507051303 | 32 | 252 | 0.0 | 1.0 | 0.00 | 0.02 | 0.00 | 86 | 1014.1 |
| 20260507050304 | 32 | 254 | 1.0 | 2.0 | 0.00 | 0.02 | 0.00 | 87 | 1014.1 |
| 20260507044803 | 32 | 274 | 0.0 | 1.0 | 0.00 | 0.02 | 0.00 | 89 | 1014.1 |
| 20260507044304 | 32 | 272 | 0.0 | 1.0 | 0.00 | 0.02 | 0.00 | 89 | 1014.1 |
| 20260507043804 | 32 | 272 | 0.0 | 1.0 | 0.00 | 0.02 | 0.00 | 89 | 1014.0 |
| 20260507042804 | 32 | 267 | 0.0 | 0.0 | 0.00 | 0.02 | 0.00 | 89 | 1014.0 |
| 20260507042306 | 32 | 267 | 0.0 | 0.0 | 0.00 | 0.02 | 0.00 | 89 | 1014.1 |
| 20260507041803 | 32 | 267 | 0.0 | 0.0 | 0.00 | 0.02 | 0.00 | 89 | 1014.0 |
| 20260507040804 | 32 | 267 | 0.0 | 0.0 | 0.00 | 0.02 | 0.00 | 89 | 1014.0 |
| 20260507040303 | 32 | 267 | 0.0 | 1.0 | 0.00 | 0.02 | 0.00 | 88 | 1014.0 |
| 20260507035804 | 32 | 263 | 0.0 | 2.0 | 0.00 | 0.02 | 0.00 | 88 | 1014.0 |
| 20260507035306 | 32 | 274 | 0.0 | 1.0 | 0.00 | 0.02 | 0.00 | 88 | 1013.8 |
| 20260507034304 | 32 | 277 | 1.0 | 2.0 | 0.00 | 0.02 | 0.00 | 88 | 1013.7 |
| 20260507033804 | 32 | 308 | 0.0 | 1.0 | 0.00 | 0.02 | 0.00 | 88 | 1013.7 |
| 20260507033303 | 32 | 308 | 0.0 | 1.0 | 0.00 | 0.02 | 0.00 | 88 | 1013.7 |
| 20260507031804 | 32 | 310 | 0.0 | 1.0 | 0.00 | 0.02 | 0.00 | 88 | 1013.6 |
| 20260507031304 | 32 | 309 | 0.0 | 1.0 | 0.00 | 0.02 | 0.00 | 87 | 1013.6 |
| 20260507030803 | 32 | 309 | 0.0 | 1.0 | 0.00 | 0.02 | 0.00 | 87 | 1013.5 |
| 20260507030303 | 32 | 309 | 0.0 | 0.0 | 0.00 | 0.02 | 0.00 | 87 | 1013.5 |
| 20260507025803 | 32 | 309 | 0.0 | 0.0 | 0.00 | 0.02 | 0.00 | 87 | 1013.4 |
| 20260507025306 | 32 | 309 | 0.0 | 0.0 | 0.00 | 0.02 | 0.00 | 87 | 1013.4 |
| 20260507024304 | 32 | 310 | 0.0 | 1.0 | 0.00 | 0.02 | 0.00 | 87 | 1013.4 |
| 20260507023804 | 33 | 310 | 0.0 | 1.0 | 0.00 | 0.02 | 0.00 | 87 | 1013.4 |
| 20260507023303 | 33 | 310 | 0.0 | 0.0 | 0.00 | 0.02 | 0.00 | 86 | 1013.4 |
| 20260507022804 | 33 | 310 | 0.0 | 1.0 | 0.00 | 0.02 | 0.00 | 85 | 1013.3 |
| 20260507022306 | 33 | 310 | 0.0 | 0.0 | 0.00 | 0.02 | 0.00 | 84 | 1013.3 |
| 20260507021804 | 33 | 310 | 0.0 | 1.0 | 0.00 | 0.02 | 0.00 | 84 | 1013.3 |
| 20260507021303 | 34 | 317 | 0.0 | 1.0 | 0.00 | 0.02 | 0.00 | 82 | 1013.2 |
| 20260507020804 | 34 | 325 | 0.0 | 1.0 | 0.00 | 0.02 | 0.00 | 79 | 1013.1 |
| 20260507020304 | 34 | 3 | 0.0 | 1.0 | 0.00 | 0.02 | 0.00 | 79 | 1012.9 |
| 20260507015804 | 34 | 3 | 0.0 | 0.0 | 0.00 | 0.02 | 0.00 | 76 | 1012.9 |
| 20260507014803 | 34 | 3 | 0.0 | 1.0 | 0.00 | 0.02 | 0.00 | 76 | 1012.9 |
| 20260507014304 | 34 | 3 | 0.0 | 0.0 | 0.00 | 0.02 | 0.00 | 76 | 1012.9 |
| 20260507013804 | 34 | 3 | 0.0 | 1.0 | 0.00 | 0.02 | 0.00 | 76 | 1012.9 |
| 20260507013304 | 34 | 2 | 0.0 | 0.0 | 0.00 | 0.02 | 0.00 | 76 | 1012.8 |
| 20260507012804 | 34 | 2 | 0.0 | 0.0 | 0.00 | 0.02 | 0.00 | 76 | 1012.9 |
| 20260507012306 | 34 | 2 | 0.0 | 1.0 | 0.00 | 0.02 | 0.00 | 76 | 1012.8 |
| 20260507011803 | 34 | 2 | 0.0 | 0.0 | 0.00 | 0.02 | 0.00 | 76 | 1012.8 |
| 20260507011304 | 34 | 2 | 0.0 | 1.0 | 0.00 | 0.02 | 0.00 | 77 | 1012.8 |
| 20260507010804 | 34 | 6 | 0.0 | 1.0 | 0.00 | 0.02 | 0.00 | 76 | 1012.6 |
| 20260507005804 | 34 | 25 | 0.0 | 1.0 | 0.00 | 0.02 | 0.00 | 77 | 1012.6 |
| 20260507005305 | 34 | 25 | 0.0 | 1.0 | 0.00 | 0.02 | 0.00 | 77 | 1012.6 |
| 20260507004304 | 34 | 25 | 0.0 | 0.0 | 0.00 | 0.02 | 0.00 | 78 | 1012.7 |
| 20260507003804 | 33 | 25 | 0.0 | 1.0 | 0.00 | 0.02 | 0.00 | 78 | 1012.6 |
| 20260507003303 | 33 | 25 | 0.0 | 0.0 | 0.00 | 0.02 | 0.00 | 78 | 1012.6 |
| 20260507002804 | 33 | 25 | 0.0 | 0.0 | 0.00 | 0.02 | 0.00 | 79 | 1012.6 |
| 20260507002306 | 34 | 25 | 0.0 | 0.0 | 0.00 | 0.02 | 0.00 | 78 | 1012.6 |
| 20260507001803 | 34 | 25 | 0.0 | 2.0 | 0.00 | 0.02 | 0.00 | 78 | 1012.6 |
| 20260507001304 | 33 | 262 | 0.0 | 1.0 | 0.00 | 0.02 | 0.00 | 79 | 1012.6 |
| 20260506235804 | 33 | 262 | 1.0 | 3.0 | 0.00 | 0.02 | 0.00 | 80 | 1012.4 |
| 20260506225305 | 35 | 252 | 0.0 | 3.0 | 0.00 | 0.02 | 0.00 | 74 | 1012.2 |
| 20260506224804 | 35 | 262 | 0.0 | 1.0 | 0.00 | 0.02 | 0.00 | 73 | 1012.2 |
| 20260506224304 | 35 | 262 | 1.0 | 2.0 | 0.00 | 0.02 | 0.00 | 74 | 1012.2 |
| 20260506223803 | 35 | 260 | 0.0 | 1.0 | 0.00 | 0.02 | 0.00 | 73 | 1012.3 |
| 20260506223304 | 35 | 260 | 1.0 | 3.0 | 0.00 | 0.02 | 0.00 | 73 | 1012.2 |
| 20260506222804 | 35 | 31 | 0.0 | 1.0 | 0.00 | 0.02 | 0.00 | 74 | 1012.1 |
| 20260506222306 | 35 | 31 | 0.0 | 1.0 | 0.00 | 0.02 | 0.00 | 74 | 1012.2 |
| 20260506221804 | 35 | 31 | 0.0 | 1.0 | 0.00 | 0.02 | 0.00 | 74 | 1012.2 |
| 20260506221304 | 35 | 30 | 0.0 | 2.0 | 0.00 | 0.02 | 0.00 | 74 | 1012.2 |
| 20260506220804 | 35 | 258 | 0.0 | 1.0 | 0.00 | 0.02 | 0.00 | 75 | 1012.1 |
| 20260506220304 | 35 | 258 | 0.0 | 1.0 | 0.00 | 0.02 | 0.00 | 74 | 1012.1 |
| 20260506215804 | 34 | 258 | 0.0 | 2.0 | 0.00 | 0.02 | 0.02 | 75 | 1012.1 |
| 20260506215306 | 34 | 275 | 0.0 | 1.0 | 0.00 | 0.02 | 0.02 | 75 | 1012.1 |
| 20260506214803 | 34 | 271 | 0.0 | 1.0 | 0.00 | 0.02 | 0.02 | 75 | 1012.1 |
| 20260506214304 | 34 | 271 | 0.0 | 1.0 | 0.00 | 0.02 | 0.02 | 75 | 1012.0 |
| 20260506213803 | 34 | 271 | 0.0 | 0.0 | 0.00 | 0.02 | 0.02 | 75 | 1012.1 |
| 20260506213303 | 35 | 271 | 0.0 | 0.0 | 0.00 | 0.02 | 0.02 | 76 | 1012.2 |
| 20260506212803 | 35 | 271 | 0.0 | 0.0 | 0.00 | 0.02 | 0.02 | 76 | 1012.1 |
| 20260506212306 | 35 | 271 | 0.0 | 1.0 | 0.00 | 0.02 | 0.02 | 75 | 1012.1 |
| 20260506211803 | 35 | 271 | 0.0 | 0.0 | 0.00 | 0.02 | 0.02 | 75 | 1012.1 |
| 20260506211304 | 35 | 271 | 0.0 | 2.0 | 0.00 | 0.02 | 0.02 | 76 | 1012.1 |
| 20260506210803 | 35 | 290 | 1.0 | 3.0 | 0.00 | 0.02 | 0.02 | 75 | 1012.1 |
| 20260506210304 | 35 | 266 | 0.0 | 1.0 | 0.00 | 0.02 | 0.02 | 76 | 1012.1 |
| 20260506205804 | 35 | 266 | 0.0 | 1.0 | 0.00 | 0.02 | 0.02 | 76 | 1012.0 |
| 20260506205306 | 35 | 266 | 1.0 | 3.0 | 0.00 | 0.02 | 0.02 | 76 | 1011.9 |
| 20260506204804 | 34 | 251 | 0.0 | 2.0 | 0.00 | 0.02 | 0.02 | 77 | 1012.0 |
| 20260506204304 | 34 | 255 | 1.0 | 3.0 | 0.00 | 0.02 | 0.02 | 77 | 1011.9 |
| 20260506203803 | 34 | 259 | 0.0 | 2.0 | 0.00 | 0.02 | 0.02 | 77 | 1012.0 |
| 20260506202803 | 34 | 269 | 1.0 | 3.0 | 0.00 | 0.02 | 0.02 | 74 | 1011.8 |
| 20260506202306 | 35 | 266 | 0.0 | 0.0 | 0.00 | 0.02 | 0.02 | 74 | 1011.8 |
| 20260506201804 | 35 | 266 | 0.0 | 2.0 | 0.00 | 0.02 | 0.02 | 74 | 1011.8 |
| 20260506201304 | 35 | 266 | 0.0 | 2.0 | 0.00 | 0.02 | 0.02 | 74 | 1011.8 |
| 20260506200303 | 35 | 304 | 0.0 | 2.0 | 0.00 | 0.02 | 0.02 | 75 | 1011.8 |
| 20260506195804 | 35 | 304 | 0.0 | 1.0 | 0.00 | 0.02 | 0.02 | 75 | 1011.8 |
| 20260506195306 | 35 | 304 | 0.0 | 0.0 | 0.00 | 0.02 | 0.02 | 75 | 1011.8 |
| 20260506194804 | 35 | 304 | 0.0 | 1.0 | 0.00 | 0.02 | 0.02 | 75 | 1011.8 |
| 20260506194303 | 35 | 304 | 0.0 | 1.0 | 0.00 | 0.02 | 0.02 | 75 | 1011.8 |
| 20260506193304 | 35 | 304 | 0.0 | 0.0 | 0.00 | 0.02 | 0.02 | 75 | 1011.7 |
| 20260506192804 | 35 | 304 | 0.0 | 0.0 | 0.00 | 0.02 | 0.02 | 75 | 1011.8 |
| 20260506192306 | 35 | 304 | 0.0 | 0.0 | 0.00 | 0.02 | 0.02 | 75 | 1011.7 |
| 20260506191304 | 35 | 272 | 0.0 | 1.0 | 0.00 | 0.02 | 0.02 | 75 | 1011.7 |
| 20260506190804 | 35 | 272 | 0.0 | 1.0 | 0.00 | 0.02 | 0.02 | 75 | 1011.7 |
| 20260506185804 | 36 | 264 | 2.0 | 7.0 | 0.00 | 0.02 | 0.02 | 75 | 1011.7 |
| 20260506185306 | 36 | 246 | 3.0 | 10.0 | 0.00 | 0.02 | 0.02 | 75 | 1011.5 |
| 20260506184804 | 36 | 255 | 5.0 | 12.0 | 0.00 | 0.02 | 0.02 | 75 | 1011.6 |
| 20260506184304 | 36 | 256 | 5.0 | 7.0 | 0.00 | 0.02 | 0.02 | 74 | 1011.4 |
| 20260506183804 | 36 | 261 | 4.0 | 9.0 | 0.00 | 0.02 | 0.02 | 73 | 1011.5 |
| 20260506183303 | 36 | 232 | 2.0 | 10.0 | 0.00 | 0.02 | 0.02 | 74 | 1011.4 |
| 20260506182803 | 36 | 241 | 5.0 | 10.0 | 0.00 | 0.02 | 0.02 | 73 | 1011.4 |
| 20260506181804 | 36 | 241 | 6.0 | 12.0 | 0.00 | 0.02 | 0.02 | 74 | 1011.4 |
| 20260506181303 | 36 | 239 | 5.0 | 13.0 | 0.00 | 0.02 | 0.02 | 75 | 1011.3 |
| 20260506180303 | 36 | 245 | 6.0 | 13.0 | 0.00 | 0.02 | 0.02 | 74 | 1011.4 |
| 20260506175804 | 37 | 256 | 7.0 | 12.0 | 0.00 | 0.02 | 0.02 | 73 | 1011.3 |
| 20260506175306 | 38 | 267 | 3.0 | 9.0 | 0.00 | 0.02 | 0.02 | 69 | 1011.2 |
| 20260506174804 | 38 | 262 | 3.0 | 6.0 | 0.00 | 0.02 | 0.02 | 66 | 1011.2 |
| 20260506173804 | 37 | 250 | 1.0 | 3.0 | 0.00 | 0.02 | 0.02 | 66 | 1011.2 |
| 20260506173304 | 37 | 276 | 1.0 | 3.0 | 0.00 | 0.02 | 0.02 | 65 | 1011.1 |
| 20260506172804 | 38 | 244 | 3.0 | 6.0 | 0.00 | 0.02 | 0.02 | 65 | 1011.1 |
| 20260506171804 | 38 | 246 | 1.0 | 6.0 | 0.00 | 0.02 | 0.02 | 65 | 1011.1 |
| 20260506171303 | 38 | 230 | 1.0 | 7.0 | 0.00 | 0.02 | 0.02 | 64 | 1011.1 |
| 20260506170804 | 38 | 258 | 2.0 | 5.0 | 0.00 | 0.02 | 0.02 | 65 | 1011.0 |
| 20260506170303 | 38 | 242 | 3.0 | 5.0 | 0.00 | 0.02 | 0.02 | 64 | 1011.0 |
| 20260506165804 | 38 | 237 | 2.0 | 6.0 | 0.00 | 0.02 | 0.02 | 64 | 1011.0 |
| 20260506165305 | 38 | 260 | 5.0 | 9.0 | 0.00 | 0.02 | 0.02 | 63 | 1011.0 |
| 20260506164804 | 38 | 229 | 4.0 | 9.0 | 0.00 | 0.02 | 0.02 | 63 | 1011.0 |
| 20260506164304 | 38 | 249 | 2.0 | 6.0 | 0.00 | 0.02 | 0.02 | 66 | 1011.0 |
| 20260506163804 | 38 | 216 | 2.0 | 9.0 | 0.00 | 0.02 | 0.02 | 65 | 1011.1 |
| 20260506163303 | 38 | 256 | 2.0 | 8.0 | 0.00 | 0.02 | 0.02 | 67 | 1011.2 |
| 20260506162804 | 38 | 254 | 2.0 | 5.0 | 0.00 | 0.02 | 0.02 | 70 | 1011.1 |
| 20260506162306 | 38 | 255 | 3.0 | 8.0 | 0.00 | 0.02 | 0.02 | 70 | 1011.2 |
| 20260506161804 | 37 | 250 | 2.0 | 6.0 | 0.00 | 0.02 | 0.02 | 72 | 1011.2 |
| 20260506161305 | 36 | 249 | 1.0 | 7.0 | 0.00 | 0.02 | 0.02 | 74 | 1011.2 |
| 20260506160803 | 36 | 233 | 3.0 | 6.0 | 0.00 | 0.02 | 0.02 | 74 | 1011.2 |
| 20260506160303 | 36 | 238 | 2.0 | 10.0 | 0.00 | 0.02 | 0.02 | 74 | 1011.2 |
| 20260506155804 | 36 | 226 | 7.0 | 15.0 | 0.00 | 0.02 | 0.02 | 73 | 1011.2 |
| 20260506155306 | 37 | 233 | 7.0 | 13.0 | 0.00 | 0.02 | 0.02 | 72 | 1011.3 |
| 20260506154803 | 39 | 221 | 5.0 | 10.0 | 0.00 | 0.02 | 0.02 | 66 | 1011.3 |
| 20260506154304 | 39 | 260 | 5.0 | 12.0 | 0.00 | 0.02 | 0.02 | 65 | 1011.2 |
| 20260506153804 | 39 | 252 | 5.0 | 10.0 | 0.00 | 0.02 | 0.02 | 61 | 1011.0 |
| 20260506152803 | 40 | 272 | 2.0 | 5.0 | 0.00 | 0.02 | 0.02 | 60 | 1011.0 |
| 20260506152306 | 40 | 263 | 2.0 | 6.0 | 0.00 | 0.02 | 0.02 | 60 | 1010.9 |
| 20260506151804 | 40 | 254 | 3.0 | 9.0 | 0.00 | 0.02 | 0.02 | 60 | 1010.9 |
| 20260506151304 | 40 | 273 | 2.0 | 6.0 | 0.00 | 0.02 | 0.02 | 60 | 1010.7 |
| 20260506150804 | 39 | 256 | 4.0 | 12.0 | 0.00 | 0.02 | 0.02 | 58 | 1010.9 |
| 20260506145803 | 40 | 253 | 4.0 | 10.0 | 0.00 | 0.02 | 0.02 | 56 | 1010.9 |
| 20260506144804 | 40 | 235 | 3.0 | 9.0 | 0.00 | 0.02 | 0.02 | 55 | 1010.8 |
| 20260506144304 | 40 | 230 | 3.0 | 8.0 | 0.00 | 0.02 | 0.02 | 57 | 1010.7 |
| 20260506143804 | 41 | 229 | 5.0 | 10.0 | 0.00 | 0.02 | 0.02 | 56 | 1010.8 |
| 20260506143304 | 41 | 229 | 7.0 | 13.0 | 0.00 | 0.02 | 0.02 | 54 | 1010.7 |
| 20260506142803 | 43 | 263 | 3.0 | 9.0 | 0.00 | 0.02 | 0.02 | 54 | 1010.8 |
| 20260506142306 | 43 | 248 | 1.0 | 3.0 | 0.00 | 0.02 | 0.02 | 52 | 1010.8 |
| 20260506141804 | 42 | 262 | 3.0 | 8.0 | 0.00 | 0.02 | 0.02 | 53 | 1010.9 |
| 20260506140804 | 41 | 247 | 2.0 | 14.0 | 0.00 | 0.02 | 0.02 | 57 | 1010.9 |
| 20260506135804 | 42 | 267 | 3.0 | 12.0 | 0.00 | 0.02 | 0.02 | 57 | 1010.9 |
| 20260506135306 | 42 | 210 | 2.0 | 12.0 | 0.00 | 0.02 | 0.02 | 55 | 1010.9 |
| 20260506134804 | 41 | 225 | 1.0 | 8.0 | 0.00 | 0.02 | 0.02 | 60 | 1010.9 |
| 20260506134304 | 40 | 217 | 3.0 | 12.0 | 0.00 | 0.02 | 0.02 | 58 | 1011.0 |
| 20260506133803 | 39 | 242 | 5.0 | 10.0 | 0.00 | 0.02 | 0.02 | 56 | 1011.0 |
| 20260506133304 | 40 | 235 | 4.0 | 12.0 | 0.00 | 0.02 | 0.02 | 60 | 1011.0 |
| 20260506132803 | 41 | 246 | 6.0 | 10.0 | 0.00 | 0.02 | 0.02 | 57 | 1011.0 |
| 20260506132307 | 43 | 219 | 7.0 | 12.0 | 0.00 | 0.02 | 0.02 | 53 | 1011.0 |
| 20260506131303 | 42 | 283 | 1.0 | 7.0 | 0.00 | 0.02 | 0.02 | 55 | 1010.9 |
| 20260506130804 | 41 | 248 | 3.0 | 12.0 | 0.00 | 0.02 | 0.02 | 59 | 1010.9 |
| 20260506130303 | 40 | 239 | 2.0 | 7.0 | 0.00 | 0.02 | 0.02 | 59 | 1010.9 |
| 20260506125803 | 40 | 247 | 3.0 | 6.0 | 0.00 | 0.02 | 0.02 | 58 | 1010.9 |
| 20260506125305 | 39 | 260 | 3.0 | 8.0 | 0.00 | 0.02 | 0.02 | 58 | 1010.9 |
| 20260506124804 | 39 | 262 | 3.0 | 9.0 | 0.00 | 0.02 | 0.02 | 56 | 1011.0 |
| 20260506124303 | 40 | 188 | 2.0 | 9.0 | 0.00 | 0.02 | 0.02 | 59 | 1010.9 |
| 20260506123303 | 42 | 316 | 1.0 | 6.0 | 0.00 | 0.02 | 0.02 | 60 | 1010.9 |
| 20260506122804 | 40 | 282 | 3.0 | 9.0 | 0.00 | 0.02 | 0.02 | 56 | 1010.9 |
| 20260506122305 | 39 | 247 | 5.0 | 10.0 | 0.00 | 0.02 | 0.02 | 55 | 1011.0 |
| 20260506121804 | 40 | 265 | 5.0 | 10.0 | 0.00 | 0.02 | 0.02 | 55 | 1010.9 |
| 20260506121306 | 40 | 263 | 5.0 | 10.0 | 0.00 | 0.02 | 0.02 | 54 | 1010.9 |
| 20260506120303 | 40 | 252 | 5.0 | 10.0 | 0.00 | 0.02 | 0.02 | 53 | 1010.9 |
| 20260506115804 | 43 | 276 | 2.0 | 5.0 | 0.00 | 0.02 | 0.02 | 55 | 1010.9 |
| 20260506115306 | 43 | 297 | 1.0 | 3.0 | 0.00 | 0.02 | 0.02 | 59 | 1010.8 |
| 20260506114803 | 43 | 281 | 2.0 | 9.0 | 0.00 | 0.02 | 0.02 | 60 | 1010.9 |
| 20260506114304 | 40 | 224 | 5.0 | 13.0 | 0.00 | 0.02 | 0.02 | 57 | 1011.0 |